Time;durP1;ratioP1;P1;durP2;ratioP2;P2;SDS_P1;SDS_P2;PMS_P1;PMS_P2;Temp;Humidity;BMP_temperature;BMP_pressure;BME280_temperature;BME280_humidity;BME280_pressure;Samples;Min_cycle;Max_cycle;Signal;HPM_P1;HPM_P2
2021/07/12 00:00:33;;;;;;;22.37;21.27;;;16.80;87.20;;;;;;4987429;28;20461;-72
2021/07/12 00:03:01;;;;;;;24.20;22.37;;;16.80;87.30;;;;;;4985413;28;20457;-72
2021/07/12 00:05:29;;;;;;;22.67;21.37;;;16.80;87.10;;;;;;4987219;28;20485;-72
2021/07/12 00:07:56;;;;;;;23.60;21.77;;;16.80;87.30;;;;;;4987448;28;20473;-72
2021/07/12 00:10:26;;;;;;;23.97;22.60;;;16.70;87.40;;;;;;4985439;28;20473;-72
2021/07/12 00:12:55;;;;;;;23.40;22.00;;;16.60;87.80;;;;;;4988274;28;20458;-72
2021/07/12 00:15:23;;;;;;;23.43;22.10;;;16.60;87.70;;;;;;4990834;28;20485;-71
2021/07/12 00:17:51;;;;;;;23.33;21.83;;;16.70;87.50;;;;;;4993829;28;20805;-72
2021/07/12 00:20:19;;;;;;;23.73;22.23;;;16.60;87.60;;;;;;4991540;28;20602;-71
2021/07/12 00:22:47;;;;;;;24.10;22.73;;;16.60;87.90;;;;;;4986179;28;20458;-72
2021/07/12 00:25:15;;;;;;;24.40;22.90;;;16.50;87.90;;;;;;4987094;28;21035;-71
2021/07/12 00:27:43;;;;;;;23.93;22.50;;;16.50;87.80;;;;;;4992190;28;20449;-72
2021/07/12 00:30:14;;;;;;;23.83;22.53;;;16.40;88.10;;;;;;4986998;28;20457;-71
2021/07/12 00:32:42;;;;;;;24.13;22.57;;;16.30;88.40;;;;;;4986117;28;20458;-72
2021/07/12 00:35:11;;;;;;;23.87;22.57;;;16.30;88.50;;;;;;4991086;28;20484;-71
2021/07/12 00:37:38;;;;;;;24.30;22.70;;;16.30;88.70;;;;;;4987906;28;20962;-72
2021/07/12 00:40:08;;;;;;;22.80;21.43;;;16.20;88.80;;;;;;4987464;28;20465;-72
2021/07/12 00:42:36;;;;;;;22.20;20.83;;;16.30;88.70;;;;;;4986423;28;20468;-72
2021/07/12 00:45:03;;;;;;;23.13;21.83;;;16.20;88.60;;;;;;4988440;28;20488;-71
2021/07/12 00:47:32;;;;;;;24.23;22.73;;;16.20;88.80;;;;;;4988507;28;20450;-71
2021/07/12 00:49:59;;;;;;;22.80;21.50;;;16.20;88.70;;;;;;4988526;28;20460;-71
2021/07/12 00:52:26;;;;;;;22.50;21.30;;;16.20;88.60;;;;;;4984366;28;20617;-71
2021/07/12 00:54:53;;;;;;;22.80;21.50;;;16.10;89.00;;;;;;4984583;28;20488;-72
2021/07/12 00:57:21;;;;;;;22.13;20.83;;;16.10;89.00;;;;;;4987073;28;20569;-72
2021/07/12 00:59:50;;;;;;;22.37;21.20;;;16.00;89.30;;;;;;4985083;28;21039;-72
2021/07/12 01:02:16;;;;;;;22.00;20.73;;;16.00;89.50;;;;;;4984968;28;21226;-72
2021/07/12 01:04:45;;;;;;;21.70;20.57;;;16.00;89.70;;;;;;4992729;28;20552;-71
2021/07/12 01:07:13;;;;;;;22.23;21.03;;;16.00;89.70;;;;;;4987443;28;20824;-72
2021/07/12 01:09:40;;;;;;;22.17;20.97;;;16.10;89.50;;;;;;4984348;28;20458;-72
2021/07/12 01:12:21;;;;;;;22.53;21.30;;;16.10;89.50;;;;;;4982040;28;20464;-72
2021/07/12 01:14:57;;;;;;;23.37;21.97;;;16.10;89.80;;;;;;4987319;28;20485;-72
2021/07/12 01:17:30;;;;;;;22.20;20.43;;;16.10;89.90;;;;;;4986777;28;20474;-72
2021/07/12 01:20:34;;;;;;;21.67;20.37;;;16.00;90.30;;;;;;4989668;28;20454;-72
2021/07/12 01:23:34;;;;;;;21.57;20.47;;;16.00;90.10;;;;;;4987596;28;20955;-72
2021/07/12 01:26:34;;;;;;;21.60;20.50;;;15.90;90.20;;;;;;4990004;28;20492;-72
2021/07/12 01:29:17;;;;;;;21.33;20.20;;;16.00;90.40;;;;;;4971199;28;20541;-72
2021/07/12 01:32:03;;;;;;;21.63;20.50;;;16.00;90.30;;;;;;4982591;28;20949;-72
2021/07/12 01:34:41;;;;;;;21.70;20.50;;;16.00;90.40;;;;;;4996858;28;20976;-72
2021/07/12 01:37:15;;;;;;;21.53;20.43;;;16.00;90.20;;;;;;4989421;28;20484;-72
2021/07/12 01:39:48;;;;;;;21.80;20.60;;;16.00;90.30;;;;;;4992779;28;20475;-72
2021/07/12 01:42:20;;;;;;;21.20;20.10;;;16.00;90.40;;;;;;4984274;28;20989;-72
2021/07/12 01:44:58;;;;;;;21.30;20.20;;;16.00;90.30;;;;;;4987200;28;20507;-72
2021/07/12 01:47:35;;;;;;;21.43;20.33;;;16.10;90.20;;;;;;4980389;28;20461;-72
2021/07/12 01:50:06;;;;;;;21.43;20.33;;;16.10;90.20;;;;;;4986001;28;20457;-72
2021/07/12 01:52:41;;;;;;;22.33;21.13;;;16.10;90.20;;;;;;4994350;28;20461;-72
2021/07/12 01:55:15;;;;;;;22.13;20.93;;;16.10;90.20;;;;;;4986295;28;20491;-72
2021/07/12 01:57:50;;;;;;;23.07;20.93;;;16.10;90.10;;;;;;4985361;28;20492;-72
2021/07/12 02:00:19;;;;;;;21.80;20.67;;;16.00;90.00;;;;;;4986585;28;20457;-72
2021/07/12 02:02:48;;;;;;;22.13;20.83;;;16.10;90.10;;;;;;4980435;28;20472;-74
2021/07/12 02:05:20;;;;;;;21.70;20.50;;;16.10;90.10;;;;;;4985817;28;20481;-71
2021/07/12 02:07:50;;;;;;;20.83;19.73;;;16.10;90.30;;;;;;4982887;28;20477;-71
2021/07/12 02:10:19;;;;;;;22.00;20.80;;;16.00;90.40;;;;;;4984216;28;20469;-71
2021/07/12 02:12:50;;;;;;;22.73;21.33;;;15.90;90.70;;;;;;4986109;28;20463;-71
2021/07/12 02:15:18;;;;;;;22.10;20.67;;;15.90;90.80;;;;;;4984949;28;20612;-71
2021/07/12 02:17:48;;;;;;;21.17;19.97;;;15.90;90.70;;;;;;4992392;28;20476;-71
2021/07/12 02:20:17;;;;;;;20.93;19.93;;;16.00;90.10;;;;;;4989303;28;20461;-72
2021/07/12 02:22:45;;;;;;;21.90;20.70;;;15.80;90.40;;;;;;4989082;28;20469;-71
2021/07/12 02:25:13;;;;;;;21.37;20.27;;;15.80;90.70;;;;;;4989233;28;21117;-71
2021/07/12 02:27:43;;;;;;;21.70;20.40;;;15.80;90.70;;;;;;4989093;28;20460;-72
2021/07/12 02:30:11;;;;;;;21.63;20.33;;;15.80;90.70;;;;;;4990857;28;20509;-71
2021/07/12 02:32:40;;;;;;;21.20;20.10;;;15.80;90.80;;;;;;4989925;28;20497;-72
2021/07/12 02:35:10;;;;;;;21.80;20.70;;;15.80;90.90;;;;;;5000406;28;20473;-71
2021/07/12 02:37:41;;;;;;;21.97;20.77;;;15.90;90.70;;;;;;4992866;28;20561;-71
2021/07/12 02:40:11;;;;;;;22.77;21.37;;;15.90;91.00;;;;;;4988369;28;20465;-72
2021/07/12 02:42:39;;;;;;;21.57;20.27;;;15.80;90.50;;;;;;4990176;28;20552;-72
2021/07/12 02:45:08;;;;;;;21.67;20.57;;;15.80;90.80;;;;;;5002464;28;20551;-72
2021/07/12 02:47:36;;;;;;;21.80;20.40;;;15.60;91.20;;;;;;4988027;28;20573;-72
2021/07/12 02:50:04;;;;;;;22.30;21.10;;;15.70;91.40;;;;;;4989418;28;21170;-72
2021/07/12 02:52:40;;;;;;;22.27;20.97;;;15.70;91.00;;;;;;4992301;28;20568;-72
2021/07/12 02:55:09;;;;;;;21.03;19.73;;;15.70;91.20;;;;;;4988990;28;20484;-72
2021/07/12 02:57:36;;;;;;;21.20;20.00;;;15.70;91.20;;;;;;4984611;28;20481;-72
2021/07/12 03:00:04;;;;;;;21.00;19.90;;;15.70;90.60;;;;;;4991876;28;20548;-73
2021/07/12 03:02:31;;;;;;;21.90;20.80;;;15.70;90.60;;;;;;4991171;28;20465;-73
2021/07/12 03:04:58;;;;;;;22.20;20.47;;;15.70;90.00;;;;;;4991922;28;20552;-73
2021/07/12 03:07:29;;;;;;;22.00;20.70;;;15.60;90.50;;;;;;4986828;28;20537;-72
2021/07/12 03:10:01;;;;;;;23.97;22.50;;;15.60;90.70;;;;;;4988374;28;20457;-72
2021/07/12 03:12:40;;;;;;;25.07;23.50;;;15.60;90.90;;;;;;4987809;28;20461;-72
2021/07/12 03:15:09;;;;;;;22.90;21.53;;;15.50;90.90;;;;;;4992055;28;20485;-72
2021/07/12 03:17:40;;;;;;;24.27;22.87;;;15.40;91.10;;;;;;4988087;28;20511;-72
2021/07/12 03:20:10;;;;;;;22.57;21.07;;;15.40;91.30;;;;;;4997824;28;20560;-72
2021/07/12 03:22:38;;;;;;;24.07;22.77;;;15.50;91.30;;;;;;4991950;28;20547;-72
2021/07/12 03:25:08;;;;;;;25.93;24.53;;;15.50;91.00;;;;;;4992429;28;20492;-72
2021/07/12 03:27:37;;;;;;;22.53;21.27;;;15.50;91.10;;;;;;4987734;28;20943;-72
2021/07/12 03:30:06;;;;;;;22.80;21.50;;;15.60;91.20;;;;;;4988205;28;20477;-72
2021/07/12 03:32:34;;;;;;;22.63;21.33;;;15.70;91.00;;;;;;4990597;28;20489;-72
2021/07/12 03:35:02;;;;;;;23.90;22.50;;;15.70;90.80;;;;;;4988867;28;20478;-72
2021/07/12 03:37:30;;;;;;;23.40;22.03;;;15.60;90.80;;;;;;4987514;28;20957;-72
2021/07/12 03:39:58;;;;;;;21.90;20.70;;;15.70;90.50;;;;;;4990095;28;20460;-72
2021/07/12 03:42:25;;;;;;;23.00;21.63;;;15.70;90.30;;;;;;4986617;28;20553;-71
2021/07/12 03:44:55;;;;;;;22.50;21.20;;;15.80;89.70;;;;;;5007623;28;20557;-72
2021/07/12 03:47:30;;;;;;;22.90;21.60;;;15.80;89.10;;;;;;4986853;28;20450;-72
2021/07/12 03:50:06;;;;;;;22.60;21.10;;;15.70;89.30;;;;;;4990379;28;20464;-72
2021/07/12 03:52:35;;;;;;;22.00;20.80;;;15.70;89.60;;;;;;4989106;28;20939;-72
2021/07/12 03:55:03;;;;;;;24.80;23.40;;;15.70;89.90;;;;;;4988606;28;20477;-72
2021/07/12 03:57:30;;;;;;;22.17;20.97;;;15.80;90.10;;;;;;4987746;28;20483;-72
2021/07/12 03:59:59;;;;;;;22.80;21.50;;;15.90;90.10;;;;;;4989670;28;20453;-72
2021/07/12 04:02:25;;;;;;;27.03;25.63;;;16.10;89.40;;;;;;4983105;28;20507;-72
2021/07/12 04:04:52;;;;;;;22.67;21.47;;;16.40;88.50;;;;;;4989366;28;20489;-72
2021/07/12 04:07:19;;;;;;;23.63;22.40;;;16.60;87.10;;;;;;4982163;28;20470;-73
2021/07/12 04:09:46;;;;;;;24.30;22.70;;;16.70;86.60;;;;;;4982875;28;20458;-73
2021/07/12 04:12:22;;;;;;;25.67;24.17;;;16.80;86.30;;;;;;4987544;28;20575;-73
2021/07/12 04:14:49;;;;;;;23.37;22.10;;;17.00;86.00;;;;;;4987358;28;20480;-73
2021/07/12 04:17:17;;;;;;;25.63;24.23;;;17.10;85.50;;;;;;4987991;28;20710;-73
2021/07/12 04:19:44;;;;;;;28.27;26.63;;;17.10;85.10;;;;;;4988328;28;21005;-72
2021/07/12 04:22:11;;;;;;;25.03;23.40;;;17.20;84.90;;;;;;4985932;28;20488;-72
2021/07/12 04:24:38;;;;;;;26.10;24.70;;;17.20;84.20;;;;;;4989812;28;20481;-73
2021/07/12 04:27:05;;;;;;;25.73;24.33;;;17.00;84.60;;;;;;4989304;28;20549;-73
2021/07/12 04:29:32;;;;;;;25.67;23.67;;;17.00;84.90;;;;;;4989705;28;20973;-72
2021/07/12 04:32:00;;;;;;;24.30;23.00;;;17.00;85.00;;;;;;4988633;28;20454;-73
2021/07/12 04:34:29;;;;;;;24.03;22.53;;;17.00;85.00;;;;;;4986431;28;20982;-73
2021/07/12 04:36:57;;;;;;;25.40;23.90;;;17.00;85.10;;;;;;4989246;28;20460;-72
2021/07/12 04:39:24;;;;;;;26.60;25.30;;;17.00;85.00;;;;;;4990340;28;20462;-72
2021/07/12 04:41:51;;;;;;;25.37;23.90;;;17.00;85.30;;;;;;4988935;28;20465;-77
2021/07/12 04:44:18;;;;;;;24.70;23.33;;;17.00;85.10;;;;;;4989377;28;20952;-72
2021/07/12 04:46:45;;;;;;;23.90;22.60;;;17.00;85.30;;;;;;4987375;28;20574;-72
2021/07/12 04:49:12;;;;;;;24.92;23.52;;;17.10;85.60;;;;;;4985601;28;20463;-73
2021/07/12 04:51:40;;;;;;;25.53;24.10;;;17.10;85.60;;;;;;4988712;28;20208;-72
2021/07/12 04:54:07;;;;;;;23.47;22.23;;;17.30;85.20;;;;;;4990612;28;21167;-72
2021/07/12 04:56:35;;;;;;;24.67;23.23;;;17.40;85.00;;;;;;4985707;28;20829;-73
2021/07/12 04:59:04;;;;;;;24.47;23.07;;;17.50;84.90;;;;;;4987504;28;20477;-73
2021/07/12 05:01:33;;;;;;;25.90;24.10;;;17.50;85.00;;;;;;4988620;28;20495;-73
2021/07/12 05:04:01;;;;;;;23.87;22.47;;;17.60;84.70;;;;;;4986375;28;20473;-72
2021/07/12 05:06:28;;;;;;;24.80;23.30;;;17.70;84.60;;;;;;4991224;28;20485;-72
2021/07/12 05:08:57;;;;;;;25.43;24.03;;;17.70;84.20;;;;;;4987509;28;20552;-72
2021/07/12 05:11:26;;;;;;;24.40;22.90;;;17.80;84.30;;;;;;4985117;28;20848;-72
2021/07/12 05:13:54;;;;;;;24.50;22.90;;;17.90;83.80;;;;;;4990679;28;20584;-75
2021/07/12 05:16:21;;;;;;;25.00;23.70;;;17.90;83.70;;;;;;4994054;28;20568;-74
2021/07/12 05:18:49;;;;;;;25.20;23.60;;;18.00;83.80;;;;;;4988288;28;21140;-73
2021/07/12 05:21:16;;;;;;;25.20;23.70;;;18.10;83.70;;;;;;4997384;28;20944;-72
2021/07/12 05:23:43;;;;;;;25.47;24.07;;;18.30;83.20;;;;;;4995942;28;20496;-72
2021/07/12 05:26:12;;;;;;;26.80;25.33;;;18.40;83.00;;;;;;4996274;28;20498;-72
2021/07/12 05:28:39;;;;;;;25.13;23.73;;;18.40;82.70;;;;;;4990760;28;20469;-73
2021/07/12 05:31:06;;;;;;;26.23;24.73;;;18.40;82.90;;;;;;4989842;28;20458;-73
2021/07/12 05:33:33;;;;;;;27.63;26.03;;;18.40;82.70;;;;;;4991649;28;20472;-73
2021/07/12 05:36:00;;;;;;;25.85;24.05;;;18.50;82.50;;;;;;5001272;28;20504;-73
2021/07/12 05:38:27;;;;;;;25.67;24.27;;;18.50;82.60;;;;;;4986896;28;20232;-72
2021/07/12 05:40:54;;;;;;;28.07;26.43;;;18.60;82.30;;;;;;4982856;28;20778;-72
2021/07/12 05:43:22;;;;;;;28.70;27.10;;;18.80;82.00;;;;;;4984646;28;20466;-73
2021/07/12 05:45:49;;;;;;;28.90;26.63;;;18.90;81.80;;;;;;4995153;28;20839;-73
2021/07/12 05:48:16;;;;;;;26.63;25.10;;;18.90;80.90;;;;;;4992560;28;20457;-72
2021/07/12 05:50:43;;;;;;;27.93;26.00;;;18.80;81.30;;;;;;4994835;28;20464;-71
2021/07/12 05:53:10;;;;;;;27.07;25.63;;;18.80;80.90;;;;;;4989406;28;21203;-71
2021/07/12 05:55:37;;;;;;;27.90;26.30;;;18.70;81.40;;;;;;4983838;28;21059;-71
2021/07/12 05:58:04;;;;;;;27.63;26.13;;;18.80;81.30;;;;;;4981325;28;20499;-71
2021/07/12 06:00:32;;;;;;;27.00;25.60;;;18.90;81.00;;;;;;4991108;28;20457;-71
2021/07/12 06:02:59;;;;;;;30.50;28.53;;;19.00;80.60;;;;;;4985377;28;20465;-71
2021/07/12 06:05:26;;;;;;;27.33;25.83;;;18.90;80.80;;;;;;4985871;28;20569;-71
2021/07/12 06:07:53;;;;;;;26.60;25.30;;;19.00;80.70;;;;;;4989351;28;20476;-71
2021/07/12 06:10:20;;;;;;;26.60;25.00;;;18.90;80.80;;;;;;4987861;28;20830;-71
2021/07/12 06:12:47;;;;;;;26.87;25.47;;;19.00;80.80;;;;;;4986263;28;21069;-72
2021/07/12 06:15:14;;;;;;;30.60;28.70;;;19.10;80.10;;;;;;4981472;28;20986;-71
2021/07/12 06:17:44;;;;;;;28.43;26.93;;;19.30;80.10;;;;;;4986452;28;20947;-71
2021/07/12 06:20:15;;;;;;;27.27;25.87;;;19.50;79.20;;;;;;4990173;28;20866;-71
2021/07/12 06:22:42;;;;;;;29.57;27.17;;;19.70;78.80;;;;;;4990809;28;20463;-71
2021/07/12 06:25:10;;;;;;;30.33;28.63;;;19.90;78.60;;;;;;5004087;28;20886;-71
2021/07/12 06:27:37;;;;;;;29.70;28.00;;;20.00;77.90;;;;;;4990396;28;20465;-72
2021/07/12 06:30:05;;;;;;;30.03;28.27;;;20.10;76.90;;;;;;4988774;28;21003;-71
2021/07/12 06:32:33;;;;;;;29.00;27.43;;;20.10;77.10;;;;;;4990490;28;20468;-71
2021/07/12 06:35:01;;;;;;;28.57;27.17;;;20.40;76.80;;;;;;4991974;28;20473;-71
2021/07/12 06:37:28;;;;;;;28.90;27.40;;;20.60;75.50;;;;;;4989733;28;20454;-71
2021/07/12 06:39:55;;;;;;;30.17;28.37;;;20.80;75.50;;;;;;4985047;28;20468;-73
2021/07/12 06:42:22;;;;;;;29.80;28.20;;;21.10;74.40;;;;;;4984952;28;20501;-73
2021/07/12 06:44:49;;;;;;;30.57;28.77;;;21.10;73.60;;;;;;4990415;28;20466;-72
2021/07/12 06:47:16;;;;;;;28.90;27.40;;;21.30;73.00;;;;;;4987408;28;20489;-72
2021/07/12 06:49:43;;;;;;;28.30;26.80;;;21.40;73.10;;;;;;4988472;28;20457;-75
2021/07/12 06:52:11;;;;;;;29.67;27.97;;;21.50;72.50;;;;;;4991865;28;20464;-74
2021/07/12 06:54:38;;;;;;;28.10;26.50;;;21.80;72.00;;;;;;4990632;28;20473;-74
2021/07/12 06:57:05;;;;;;;27.20;25.70;;;22.00;71.50;;;;;;4988848;28;20462;-75
2021/07/12 06:59:32;;;;;;;28.93;27.30;;;22.20;70.50;;;;;;4992100;28;20513;-76
2021/07/12 07:01:59;;;;;;;28.60;26.90;;;22.50;69.50;;;;;;4991899;28;20493;-77
2021/07/12 07:04:26;;;;;;;29.50;27.90;;;22.70;69.40;;;;;;4975017;28;20468;-76
2021/07/12 07:06:53;;;;;;;27.10;25.60;;;23.00;68.00;;;;;;4999510;28;20489;-76
2021/07/12 07:09:28;;;;;;;29.37;27.33;;;23.10;67.10;;;;;;4989389;28;20465;-77
2021/07/12 07:11:54;;;;;;;28.10;26.70;;;23.20;67.70;;;;;;4989374;28;20471;-77
2021/07/12 07:14:21;;;;;;;28.30;26.80;;;23.30;66.30;;;;;;4991319;28;20549;-75
2021/07/12 07:16:48;;;;;;;27.70;26.30;;;23.30;66.80;;;;;;4992041;28;20457;-76
2021/07/12 07:19:15;;;;;;;31.00;29.40;;;23.40;67.00;;;;;;4991019;28;20478;-75
2021/07/12 07:21:42;;;;;;;30.70;29.10;;;23.60;66.40;;;;;;4988407;28;20461;-75
2021/07/12 07:24:09;;;;;;;30.27;28.87;;;23.70;66.30;;;;;;4986063;28;20461;-75
2021/07/12 07:26:37;;;;;;;29.47;27.97;;;23.60;65.90;;;;;;4985552;28;20528;-75
2021/07/12 07:29:04;;;;;;;29.50;27.80;;;23.50;66.30;;;;;;4990197;28;20461;-75
2021/07/12 07:31:31;;;;;;;31.10;29.50;;;23.50;66.00;;;;;;4990236;28;20473;-74
2021/07/12 07:33:58;;;;;;;30.90;29.30;;;23.10;66.40;;;;;;4991901;28;20462;-74
2021/07/12 07:36:25;;;;;;;28.23;26.60;;;23.00;67.10;;;;;;4991679;28;20481;-74
2021/07/12 07:38:52;;;;;;;27.80;26.33;;;23.20;67.10;;;;;;4984072;28;20481;-74
2021/07/12 07:41:19;;;;;;;28.23;26.63;;;23.30;67.20;;;;;;4990520;28;20888;-70
2021/07/12 07:43:47;;;;;;;28.90;27.40;;;23.20;67.10;;;;;;4990611;28;20462;-70
2021/07/12 07:46:16;;;;;;;30.87;29.17;;;23.10;68.00;;;;;;4999060;28;20478;-71
2021/07/12 07:48:43;;;;;;;30.30;28.60;;;23.10;67.50;;;;;;4989832;28;20820;-69
2021/07/12 07:51:10;;;;;;;28.70;27.00;;;23.10;67.70;;;;;;4984327;28;20462;-70
2021/07/12 07:53:37;;;;;;;28.90;27.40;;;23.10;68.10;;;;;;4994842;28;20553;-72
2021/07/12 07:56:04;;;;;;;28.00;26.37;;;23.20;68.10;;;;;;4985911;28;21017;-71
2021/07/12 07:58:33;;;;;;;29.73;28.03;;;23.20;67.80;;;;;;4988221;28;20548;-71
2021/07/12 08:01:02;;;;;;;29.80;28.20;;;23.20;67.20;;;;;;4993220;28;20468;-72
2021/07/12 08:03:28;;;;;;;31.60;29.77;;;23.20;67.40;;;;;;4988402;28;20832;-72
2021/07/12 08:05:55;;;;;;;31.20;29.50;;;23.20;67.00;;;;;;4989873;28;20815;-72
2021/07/12 08:08:22;;;;;;;31.00;29.30;;;23.10;67.30;;;;;;4989094;28;20525;-72
2021/07/12 08:10:49;;;;;;;31.03;29.33;;;23.20;67.20;;;;;;4988945;28;20547;-71
2021/07/12 08:13:16;;;;;;;28.20;26.60;;;23.40;67.50;;;;;;4988992;28;20462;-71
2021/07/12 08:15:43;;;;;;;30.70;29.00;;;23.40;66.50;;;;;;4997930;28;20481;-71
2021/07/12 08:18:12;;;;;;;31.43;29.73;;;23.50;65.70;;;;;;4988198;28;20458;-72
2021/07/12 08:20:39;;;;;;;29.60;28.00;;;23.60;66.00;;;;;;4989045;28;20797;-71
2021/07/12 08:23:06;;;;;;;31.37;29.67;;;23.60;65.60;;;;;;4987891;28;20592;-71
2021/07/12 08:25:33;;;;;;;30.30;28.70;;;23.40;66.30;;;;;;4988976;28;20489;-72
2021/07/12 08:27:59;;;;;;;36.97;34.50;;;23.30;66.70;;;;;;4987898;28;20465;-72
2021/07/12 08:30:26;;;;;;;30.33;28.73;;;23.20;66.70;;;;;;4990774;28;20822;-72
2021/07/12 08:32:53;;;;;;;31.33;29.63;;;23.40;66.40;;;;;;4990949;28;20473;-72
2021/07/12 08:35:22;;;;;;;30.50;28.90;;;23.50;66.00;;;;;;5001755;28;20489;-72
2021/07/12 08:37:50;;;;;;;32.10;30.20;;;23.60;66.10;;;;;;4988788;28;20472;-72
2021/07/12 08:40:18;;;;;;;28.27;26.77;;;23.70;66.50;;;;;;4986670;28;20478;-72
2021/07/12 08:42:46;;;;;;;29.90;28.00;;;23.60;66.00;;;;;;4987430;28;20765;-72
2021/07/12 08:45:14;;;;;;;29.73;28.13;;;23.70;66.40;;;;;;4988670;28;20577;-72
2021/07/12 08:47:42;;;;;;;30.27;28.47;;;24.00;65.50;;;;;;4989707;28;20462;-72
2021/07/12 08:50:10;;;;;;;32.00;30.20;;;24.10;65.60;;;;;;4987891;28;20967;-72
2021/07/12 08:52:42;;;;;;;31.80;30.00;;;24.20;65.70;;;;;;4988788;28;20461;-71
2021/07/12 08:55:09;;;;;;;31.67;29.97;;;24.20;65.50;;;;;;4986587;28;20896;-72
2021/07/12 08:57:36;;;;;;;33.90;32.00;;;24.30;65.50;;;;;;4987998;28;20600;-73
2021/07/12 09:00:06;;;;;;;32.47;30.77;;;24.40;64.40;;;;;;4985934;28;20481;-73
2021/07/12 09:02:34;;;;;;;33.83;32.03;;;24.40;64.50;;;;;;4989071;28;20461;-73
2021/07/12 09:05:01;;;;;;;31.60;29.80;;;24.60;64.30;;;;;;4987554;28;20759;-73
2021/07/12 09:07:32;;;;;;;30.93;29.30;;;24.60;63.80;;;;;;4985081;28;20461;-73
2021/07/12 09:10:02;;;;;;;29.63;27.73;;;24.60;63.20;;;;;;4984463;28;20480;-73
2021/07/12 09:12:40;;;;;;;29.87;28.20;;;24.40;63.90;;;;;;4986899;28;20464;-75
2021/07/12 09:15:09;;;;;;;30.37;28.70;;;24.60;63.90;;;;;;4990395;28;20893;-75
2021/07/12 09:17:38;;;;;;;31.80;30.10;;;24.80;64.20;;;;;;4988307;28;20541;-75
2021/07/12 09:20:08;;;;;;;30.33;28.63;;;24.90;63.20;;;;;;4987782;28;20476;-75
2021/07/12 09:22:37;;;;;;;31.90;30.20;;;25.00;63.00;;;;;;4985027;28;20617;-73
2021/07/12 09:25:08;;;;;;;30.03;28.43;;;25.10;62.60;;;;;;4988280;28;20580;-74
2021/07/12 09:27:38;;;;;;;32.60;30.80;;;25.00;61.90;;;;;;4987065;28;20555;-74
2021/07/12 09:30:08;;;;;;;30.10;28.20;;;25.00;62.10;;;;;;4982915;28;20543;-76
2021/07/12 09:32:36;;;;;;;31.50;29.80;;;24.80;62.30;;;;;;4982987;28;21044;-71
2021/07/12 09:35:07;;;;;;;32.70;30.90;;;24.80;62.80;;;;;;4986112;28;21061;-72
2021/07/12 09:37:34;;;;;;;31.03;29.30;;;25.00;63.20;;;;;;4983643;28;20483;-72
2021/07/12 09:40:02;;;;;;;30.40;28.80;;;25.20;63.50;;;;;;4989209;28;20503;-73
2021/07/12 09:42:32;;;;;;;31.53;29.60;;;25.40;61.60;;;;;;4985533;28;20476;-73
2021/07/12 09:45:00;;;;;;;30.10;28.40;;;25.60;61.50;;;;;;4989238;28;20536;-73
2021/07/12 09:47:29;;;;;;;33.07;31.27;;;25.60;61.50;;;;;;4989179;28;20488;-72
2021/07/12 09:50:01;;;;;;;31.80;30.00;;;25.80;61.30;;;;;;4988156;28;20442;-73
2021/07/12 09:52:38;;;;;;;29.80;28.00;;;26.00;60.90;;;;;;4989393;28;20807;-73
2021/07/12 09:55:09;;;;;;;32.40;30.53;;;26.10;60.50;;;;;;4995405;28;20484;-72
2021/07/12 09:57:39;;;;;;;30.03;28.43;;;26.30;60.20;;;;;;4991625;28;20460;-73
2021/07/12 10:00:08;;;;;;;32.93;31.03;;;26.40;59.30;;;;;;5006039;28;20491;-72
2021/07/12 10:02:37;;;;;;;34.03;32.13;;;26.60;59.70;;;;;;4991252;28;20465;-72
2021/07/12 10:05:06;;;;;;;33.20;31.30;;;26.70;58.60;;;;;;4998446;28;20615;-73
2021/07/12 10:07:34;;;;;;;30.87;29.17;;;26.80;58.10;;;;;;4991433;28;20561;-72
2021/07/12 10:10:04;;;;;;;30.07;28.47;;;26.70;58.30;;;;;;4999002;28;20474;-72
2021/07/12 10:12:31;;;;;;;30.87;29.17;;;26.90;58.10;;;;;;4990928;28;20471;-73
2021/07/12 10:14:59;;;;;;;32.43;30.63;;;27.10;57.70;;;;;;4993423;28;20552;-71
2021/07/12 10:17:26;;;;;;;33.00;31.10;;;27.10;57.10;;;;;;4988318;28;20633;-71
2021/07/12 10:19:53;;;;;;;32.60;30.70;;;27.30;57.10;;;;;;4990402;28;20571;-71
2021/07/12 10:22:23;;;;;;;33.30;31.40;;;27.20;56.70;;;;;;4989277;28;20458;-71
2021/07/12 10:24:52;;;;;;;31.30;28.97;;;27.20;57.30;;;;;;5001576;28;20482;-70
2021/07/12 10:27:25;;;;;;;31.27;29.30;;;27.40;57.10;;;;;;4986951;28;20561;-71
2021/07/12 10:29:53;;;;;;;30.93;29.10;;;27.50;55.90;;;;;;4989961;28;20446;-71
2021/07/12 10:32:23;;;;;;;31.27;29.57;;;27.70;56.00;;;;;;4988967;28;20458;-72
2021/07/12 10:34:52;;;;;;;31.03;29.33;;;28.00;56.30;;;;;;4995957;28;20472;-73
2021/07/12 10:37:28;;;;;;;31.60;29.80;;;28.20;55.90;;;;;;4992893;28;21145;-72
2021/07/12 10:40:11;;;;;;;29.90;28.30;;;28.40;54.90;;;;;;4986585;28;20552;-72
2021/07/12 10:42:58;;;;;;;30.40;28.60;;;28.70;55.40;;;;;;4990847;28;20568;-71
2021/07/12 10:45:52;;;;;;;31.07;29.27;;;28.90;54.60;;;;;;4994119;28;20483;-73
2021/07/12 10:48:20;;;;;;;32.10;30.30;;;29.00;53.90;;;;;;5001600;28;20483;-72
2021/07/12 10:50:55;;;;;;;35.37;33.23;;;29.10;53.60;;;;;;5006724;28;21064;-73
2021/07/12 10:53:39;;;;;;;36.47;34.63;;;29.30;53.30;;;;;;4996785;28;20474;-73
2021/07/12 10:56:17;;;;;;;30.97;29.27;;;29.40;53.20;;;;;;4994977;28;20481;-73
2021/07/12 10:58:49;;;;;;;30.07;28.30;;;29.40;52.80;;;;;;4997343;28;20469;-73
2021/07/12 11:01:43;;;;;;;33.60;31.60;;;29.40;53.10;;;;;;5005745;28;20473;-74
2021/07/12 11:04:47;;;;;;;32.80;31.00;;;29.40;53.10;;;;;;4990495;28;20467;-74
2021/07/12 11:07:17;;;;;;;32.60;30.80;;;29.40;52.20;;;;;;4987137;28;20464;-74
2021/07/12 11:10:00;;;;;;;29.57;27.97;;;29.30;51.80;;;;;;4991950;28;20458;-74
2021/07/12 11:12:39;;;;;;;29.53;27.93;;;29.10;51.30;;;;;;4989107;28;20532;-73
2021/07/12 11:15:12;;;;;;;30.17;28.47;;;29.10;52.00;;;;;;4997655;28;20849;-73
2021/07/12 11:18:03;;;;;;;32.83;31.03;;;29.20;52.30;;;;;;4995679;28;20540;-73
2021/07/12 11:21:02;;;;;;;32.60;30.57;;;29.40;52.00;;;;;;4988705;28;20489;-74
2021/07/12 11:23:52;;;;;;;32.67;30.80;;;29.60;51.20;;;;;;4983476;28;20489;-75
2021/07/12 11:26:51;;;;;;;30.23;28.57;;;29.80;50.20;;;;;;4984784;28;20567;-74
2021/07/12 11:29:45;;;;;;;29.63;28.03;;;29.80;51.40;;;;;;4994699;28;20818;-74
2021/07/12 11:32:13;;;;;;;29.60;27.90;;;29.90;50.30;;;;;;4945182;28;20464;-74
2021/07/12 11:34:47;;;;;;;33.57;31.60;;;29.90;50.60;;;;;;4994062;28;20560;-74
2021/07/12 11:37:15;;;;;;;29.20;27.60;;;30.00;49.50;;;;;;4988284;28;20462;-74
2021/07/12 11:39:47;;;;;;;31.97;30.20;;;29.80;48.60;;;;;;4993158;28;20475;-74
2021/07/12 11:42:20;;;;;;;30.57;28.77;;;29.50;48.70;;;;;;4989389;28;20560;-74
2021/07/12 11:44:53;;;;;;;32.17;30.30;;;29.40;49.10;;;;;;4990325;28;20478;-74
2021/07/12 11:47:26;;;;;;;31.70;29.90;;;29.20;50.10;;;;;;4991178;28;20556;-75
2021/07/12 11:49:56;;;;;;;30.90;29.10;;;29.30;50.60;;;;;;5003591;28;20803;-74
2021/07/12 11:52:24;;;;;;;29.60;28.00;;;29.40;50.50;;;;;;4993300;28;20453;-74
2021/07/12 11:55:05;;;;;;;32.10;30.30;;;29.40;50.10;;;;;;4995644;28;21044;-74
2021/07/12 11:57:33;;;;;;;30.03;28.40;;;29.40;50.00;;;;;;4986530;28;20903;-74
2021/07/12 12:00:00;;;;;;;31.23;29.53;;;29.40;50.10;;;;;;4994106;28;20539;-74
2021/07/12 12:02:27;;;;;;;31.80;29.97;;;29.50;50.10;;;;;;4995362;28;20471;-74
2021/07/12 12:04:57;;;;;;;31.13;29.40;;;29.50;51.00;;;;;;5003599;28;20482;-74
2021/07/12 12:07:33;;;;;;;32.23;30.23;;;29.70;50.20;;;;;;4990877;28;20468;-74
2021/07/12 12:10:04;;;;;;;31.83;30.03;;;29.90;49.30;;;;;;4985946;28;20453;-74
2021/07/12 12:12:33;;;;;;;32.17;30.30;;;30.10;48.80;;;;;;4992909;28;20468;-74
2021/07/12 12:15:12;;;;;;;29.80;28.13;;;30.10;49.90;;;;;;5002404;28;20497;-74
2021/07/12 12:17:43;;;;;;;30.73;28.93;;;30.20;49.80;;;;;;4994316;28;20488;-74
2021/07/12 12:20:20;;;;;;;30.30;28.60;;;30.30;49.00;;;;;;5002227;28;20524;-74
2021/07/12 12:22:57;;;;;;;30.77;29.07;;;30.40;47.90;;;;;;4991583;28;20467;-74
2021/07/12 12:25:26;;;;;;;30.87;29.17;;;30.40;48.80;;;;;;4991310;28;20485;-74
2021/07/12 12:27:54;;;;;;;30.07;28.37;;;30.50;48.80;;;;;;4992455;28;21144;-74
2021/07/12 12:30:21;;;;;;;30.97;29.27;;;30.40;48.20;;;;;;5002592;28;20457;-72
2021/07/12 12:32:55;;;;;;;31.80;30.00;;;30.40;48.20;;;;;;4989467;28;20461;-71
2021/07/12 12:35:23;;;;;;;31.30;29.50;;;30.30;48.40;;;;;;4993752;28;20848;-72
2021/07/12 12:37:52;;;;;;;31.03;29.23;;;30.00;48.80;;;;;;4988526;28;20538;-71
2021/07/12 12:40:21;;;;;;;30.87;29.17;;;30.00;48.80;;;;;;4990479;28;20477;-70
2021/07/12 12:42:51;;;;;;;32.00;30.03;;;30.20;48.70;;;;;;4989810;28;20461;-72